Time;durP1;ratioP1;P1;durP2;ratioP2;P2;SDS_P1;SDS_P2;PMS_P1;PMS_P2;Temp;Humidity;BMP_temperature;BMP_pressure;BME280_temperature;BME280_humidity;BME280_pressure;Samples;Min_cycle;Max_cycle;Signal;HPM_P1;HPM_P2
2022/08/03 00:01:32;;;;;;;0.10;0.10;;;;;;;;;;5118685;27;20035;-77
2022/08/03 00:03:58;;;;;;;0.00;0.00;;;;;;;;;;5123919;27;20069;-77
2022/08/03 00:06:24;;;;;;;0.10;0.10;;;;;;;;;;5114865;27;20042;-77
2022/08/03 00:08:50;;;;;;;0.10;0.10;;;;;;;;;;5139054;27;20049;-77
2022/08/03 00:11:16;;;;;;;0.10;0.10;;;;;;;;;;5117818;27;20046;-78
2022/08/03 00:13:43;;;;;;;0.10;0.10;;;;;;;;;;5115272;27;20474;-77
2022/08/03 00:16:09;;;;;;;0.10;0.10;;;;;;;;;;5118590;27;20055;-78
2022/08/03 00:18:35;;;;;;;0.75;0.75;;;;;;;;;;5136886;27;20092;-77
2022/08/03 00:21:02;;;;;;;0.10;0.10;;;;;;;;;;5114300;27;20039;-77
2022/08/03 00:23:28;;;;;;;0.00;0.00;;;;;;;;;;5135936;27;20045;-77
2022/08/03 00:25:54;;;;;;;0.10;0.10;;;;;;;;;;5131869;27;20038;-77
2022/08/03 00:28:20;;;;;;;0.10;0.10;;;;;;;;;;5136706;27;20082;-80
2022/08/03 00:30:46;;;;;;;0.15;0.15;;;;;;;;;;5121508;27;20058;-80
2022/08/03 00:33:12;;;;;;;0.10;0.10;;;;;;;;;;5134913;27;20043;-78
2022/08/03 00:35:38;;;;;;;0.10;0.10;;;;;;;;;;5115033;27;20100;-78
2022/08/03 00:38:05;;;;;;;0.10;0.10;;;;;;;;;;5137904;27;20070;-78
2022/08/03 00:40:31;;;;;;;0.10;0.10;;;;;;;;;;5134979;27;21373;-78
2022/08/03 00:42:58;;;;;;;0.10;0.10;;;;;;;;;;5140104;27;20038;-78
2022/08/03 00:45:26;;;;;;;0.00;0.00;;;;;;;;;;5138252;27;20478;-78
2022/08/03 00:47:52;;;;;;;0.10;0.10;;;;;;;;;;5135674;27;20043;-78
2022/08/03 00:50:19;;;;;;;0.10;0.10;;;;;;;;;;5116790;27;20086;-79
2022/08/03 00:52:46;;;;;;;0.00;0.00;;;;;;;;;;5116805;27;20153;-78
2022/08/03 00:55:12;;;;;;;0.10;0.10;;;;;;;;;;5113891;27;20046;-79
2022/08/03 00:57:38;;;;;;;0.10;0.10;;;;;;;;;;5143355;27;20081;-78
2022/08/03 01:00:05;;;;;;;0.10;0.10;;;;;;;;;;5136463;27;20043;-79
2022/08/03 01:02:32;;;;;;;0.10;0.10;;;;;;;;;;5134717;27;20493;-77
2022/08/03 01:04:58;;;;;;;0.10;0.10;;;;;;;;;;5141077;27;20053;-78
2022/08/03 01:07:33;;;;;;;0.10;0.10;;;;;;;;;;5135497;27;20035;-79
2022/08/03 01:10:05;;;;;;;0.22;0.22;;;;;;;;;;5135058;27;20039;-74
2022/08/03 01:12:41;;;;;;;0.10;0.10;;;;;;;;;;5122206;27;20059;-79
2022/08/03 01:15:12;;;;;;;0.10;0.10;;;;;;;;;;5140503;27;20182;-78
2022/08/03 01:17:56;;;;;;;0.15;0.15;;;;;;;;;;5140820;27;20143;-77
2022/08/03 01:20:23;;;;;;;0.10;0.10;;;;;;;;;;5142046;27;20047;-77
2022/08/03 01:23:08;;;;;;;0.38;0.38;;;;;;;;;;5140996;27;20038;-77
2022/08/03 01:25:40;;;;;;;0.10;0.10;;;;;;;;;;5137707;27;20043;-77
2022/08/03 01:28:22;;;;;;;0.10;0.10;;;;;;;;;;5135731;27;20509;-77
2022/08/03 01:30:49;;;;;;;0.10;0.10;;;;;;;;;;5139933;27;20039;-79
2022/08/03 01:33:18;;;;;;;0.10;0.10;;;;;;;;;;5121979;27;20135;-78
2022/08/03 01:35:46;;;;;;;0.10;0.10;;;;;;;;;;5118473;27;20051;-80
2022/08/03 01:38:24;;;;;;;0.10;0.10;;;;;;;;;;5129846;27;20098;-78
2022/08/03 01:40:51;;;;;;;0.22;0.22;;;;;;;;;;5140112;27;20086;-78
2022/08/03 01:43:19;;;;;;;3.42;1.17;;;;;;;;;;5134676;27;20061;-77
2022/08/03 01:45:45;;;;;;;0.10;0.10;;;;;;;;;;5137075;27;20429;-77
2022/08/03 01:48:15;;;;;;;0.10;0.10;;;;;;;;;;5133289;27;20106;-80
2022/08/03 01:50:42;;;;;;;0.00;0.00;;;;;;;;;;5120786;27;20077;-77
2022/08/03 01:53:08;;;;;;;0.00;0.00;;;;;;;;;;5137510;27;20042;-77
2022/08/03 01:55:36;;;;;;;0.10;0.10;;;;;;;;;;5141069;27;21534;-79
2022/08/03 01:58:03;;;;;;;0.47;0.45;;;;;;;;;;5115447;27;20081;-78
2022/08/03 02:00:29;;;;;;;0.10;0.10;;;;;;;;;;5138486;27;20054;-77
2022/08/03 02:02:56;;;;;;;0.10;0.10;;;;;;;;;;5135658;27;20126;-80
2022/08/03 02:05:22;;;;;;;0.40;0.40;;;;;;;;;;5122103;27;20054;-78
2022/08/03 02:07:49;;;;;;;0.10;0.10;;;;;;;;;;5138430;27;20050;-78
2022/08/03 02:10:18;;;;;;;0.10;0.10;;;;;;;;;;5135102;27;20512;-77
2022/08/03 02:12:44;;;;;;;0.10;0.10;;;;;;;;;;5118873;27;21694;-81
2022/08/03 02:15:11;;;;;;;0.00;0.00;;;;;;;;;;5116490;27;20103;-78
2022/08/03 02:17:38;;;;;;;0.10;0.10;;;;;;;;;;5140888;27;20042;-77
2022/08/03 02:20:05;;;;;;;0.10;0.10;;;;;;;;;;5117760;27;20057;-77
2022/08/03 02:22:32;;;;;;;0.00;0.00;;;;;;;;;;5138677;27;20054;-77
2022/08/03 02:24:58;;;;;;;0.08;0.08;;;;;;;;;;5143020;27;20393;-77
2022/08/03 02:27:26;;;;;;;0.10;0.10;;;;;;;;;;5124637;27;20046;-78
2022/08/03 02:29:58;;;;;;;0.10;0.10;;;;;;;;;;5136055;27;20050;-78
2022/08/03 02:32:28;;;;;;;0.10;0.10;;;;;;;;;;5137275;27;20062;-78
2022/08/03 02:34:55;;;;;;;0.10;0.10;;;;;;;;;;5138780;27;20039;-78
2022/08/03 02:37:25;;;;;;;0.10;0.10;;;;;;;;;;5141179;27;20051;-81
2022/08/03 02:39:52;;;;;;;0.10;0.10;;;;;;;;;;5111847;27;20362;-78
2022/08/03 02:42:21;;;;;;;0.10;0.10;;;;;;;;;;5135700;27;20081;-77
2022/08/03 02:44:48;;;;;;;0.00;0.00;;;;;;;;;;5136796;27;20057;-78
2022/08/03 02:47:14;;;;;;;0.20;0.20;;;;;;;;;;5135327;27;20451;-77
2022/08/03 02:49:41;;;;;;;0.00;0.00;;;;;;;;;;5118614;27;20100;-77
2022/08/03 02:52:10;;;;;;;0.10;0.10;;;;;;;;;;5138132;27;20179;-77
2022/08/03 02:54:37;;;;;;;0.00;0.00;;;;;;;;;;5120967;27;20042;-78
2022/08/03 02:57:06;;;;;;;0.10;0.10;;;;;;;;;;5131772;27;20482;-77
2022/08/03 02:59:33;;;;;;;0.10;0.10;;;;;;;;;;5137798;27;20047;-77
2022/08/03 03:02:00;;;;;;;0.20;0.20;;;;;;;;;;5120334;27;20035;-76
2022/08/03 03:04:27;;;;;;;0.10;0.10;;;;;;;;;;5141692;27;20087;-77
2022/08/03 03:06:54;;;;;;;0.10;0.10;;;;;;;;;;5115503;27;20420;-77
2022/08/03 03:09:20;;;;;;;0.10;0.10;;;;;;;;;;5135881;27;20139;-78
2022/08/03 03:11:48;;;;;;;0.00;0.00;;;;;;;;;;5138860;27;20100;-77
2022/08/03 03:14:15;;;;;;;0.10;0.10;;;;;;;;;;5107464;27;20046;-77
2022/08/03 03:16:41;;;;;;;0.10;0.10;;;;;;;;;;5126795;27;20054;-78
2022/08/03 03:19:08;;;;;;;0.10;0.10;;;;;;;;;;5133500;27;20095;-78
2022/08/03 03:21:35;;;;;;;0.10;0.10;;;;;;;;;;5132720;27;20042;-77
2022/08/03 03:24:01;;;;;;;0.75;0.75;;;;;;;;;;5135393;27;20439;-78
2022/08/03 03:26:28;;;;;;;0.00;0.00;;;;;;;;;;5133543;27;20880;-79
2022/08/03 03:28:54;;;;;;;2.03;0.35;;;;;;;;;;5135705;27;20065;-79
2022/08/03 03:31:20;;;;;;;0.10;0.10;;;;;;;;;;5119157;27;20051;-80
2022/08/03 03:33:47;;;;;;;0.10;0.10;;;;;;;;;;5131584;27;20130;-77
2022/08/03 03:36:13;;;;;;;0.10;0.10;;;;;;;;;;5119023;27;21738;-78
2022/08/03 03:38:39;;;;;;;0.03;0.03;;;;;;;;;;5115353;27;20042;-79
2022/08/03 03:41:05;;;;;;;0.10;0.10;;;;;;;;;;5121294;27;20035;-77
2022/08/03 03:43:31;;;;;;;0.10;0.10;;;;;;;;;;5140458;27;20070;-77
2022/08/03 03:45:58;;;;;;;0.15;0.15;;;;;;;;;;5137021;27;20068;-79
2022/08/03 03:48:25;;;;;;;0.00;0.00;;;;;;;;;;5140537;27;20069;-77
2022/08/03 03:50:51;;;;;;;0.10;0.10;;;;;;;;;;5145477;27;20051;-77
2022/08/03 03:53:17;;;;;;;1.55;1.30;;;;;;;;;;5138118;27;20043;-78
2022/08/03 03:55:43;;;;;;;0.10;0.10;;;;;;;;;;5116329;27;20035;-79
2022/08/03 03:58:09;;;;;;;0.10;0.10;;;;;;;;;;5133211;27;20059;-77
2022/08/03 04:00:35;;;;;;;0.55;0.55;;;;;;;;;;5118848;27;20048;-78
2022/08/03 04:03:01;;;;;;;0.10;0.10;;;;;;;;;;5120286;27;20035;-76
2022/08/03 04:11:17;;;;;;;0.10;0.10;;;;;;;;;;5134885;27;20124;-77
2022/08/03 04:13:55;;;;;;;0.43;0.43;;;;;;;;;;5126033;27;20441;-78
2022/08/03 04:16:23;;;;;;;4.03;1.23;;;;;;;;;;5135737;27;20055;-78
2022/08/03 04:18:52;;;;;;;0.08;0.08;;;;;;;;;;5116975;27;20126;-77
2022/08/03 04:21:19;;;;;;;0.10;0.10;;;;;;;;;;5138257;27;20046;-80
2022/08/03 04:23:47;;;;;;;0.10;0.10;;;;;;;;;;5112868;27;20053;-78
2022/08/03 04:26:14;;;;;;;0.10;0.10;;;;;;;;;;5098377;27;20430;-77
2022/08/03 04:28:41;;;;;;;0.10;0.10;;;;;;;;;;5131631;27;20074;-77
2022/08/03 04:31:07;;;;;;;0.10;0.10;;;;;;;;;;5121565;27;20042;-77
2022/08/03 04:33:35;;;;;;;0.10;0.10;;;;;;;;;;5127550;27;20051;-79
2022/08/03 04:36:03;;;;;;;0.10;0.10;;;;;;;;;;5118225;27;20043;-78
2022/08/03 04:38:32;;;;;;;0.10;0.10;;;;;;;;;;5140847;27;20047;-79
2022/08/03 04:40:59;;;;;;;0.15;0.15;;;;;;;;;;5129164;27;20117;-79
2022/08/03 04:43:26;;;;;;;0.10;0.10;;;;;;;;;;5147077;27;20070;-79
2022/08/03 04:45:52;;;;;;;0.10;0.10;;;;;;;;;;5143576;27;20053;-80
2022/08/03 04:48:19;;;;;;;0.00;0.00;;;;;;;;;;5139942;27;20050;-87
2022/08/03 04:50:45;;;;;;;0.10;0.10;;;;;;;;;;5114960;27;20051;-82
2022/08/03 04:53:12;;;;;;;0.10;0.10;;;;;;;;;;5129293;27;20065;-88
2022/08/03 04:55:38;;;;;;;0.10;0.10;;;;;;;;;;5142112;27;20080;-86
2022/08/03 04:58:05;;;;;;;0.10;0.10;;;;;;;;;;5144176;27;20035;-88
2022/08/03 05:00:31;;;;;;;0.00;0.00;;;;;;;;;;5139530;27;20035;-83
2022/08/03 05:02:57;;;;;;;0.10;0.10;;;;;;;;;;5131766;27;20047;-82
2022/08/03 05:05:23;;;;;;;0.25;0.25;;;;;;;;;;5146000;27;20046;-82
2022/08/03 05:07:50;;;;;;;0.10;0.10;;;;;;;;;;5142003;27;20050;-81
2022/08/03 05:10:16;;;;;;;0.10;0.10;;;;;;;;;;5140880;27;20043;-82
2022/08/03 05:12:42;;;;;;;0.05;0.05;;;;;;;;;;5131502;27;20049;-81
2022/08/03 05:15:09;;;;;;;0.10;0.10;;;;;;;;;;5140385;27;20064;-81
2022/08/03 05:17:35;;;;;;;0.10;0.10;;;;;;;;;;5116378;27;20050;-82
2022/08/03 05:20:03;;;;;;;0.10;0.10;;;;;;;;;;5142888;27;20133;-86
2022/08/03 05:22:29;;;;;;;0.10;0.10;;;;;;;;;;5131290;27;20038;-79
2022/08/03 05:24:55;;;;;;;0.10;0.10;;;;;;;;;;5114811;27;20043;-80
2022/08/03 05:27:21;;;;;;;0.00;0.00;;;;;;;;;;5128081;27;20043;-81
2022/08/03 05:29:48;;;;;;;0.47;0.47;;;;;;;;;;5109226;27;20039;-84
2022/08/03 05:32:15;;;;;;;0.10;0.10;;;;;;;;;;5106876;27;20046;-82
2022/08/03 05:34:41;;;;;;;0.10;0.10;;;;;;;;;;5119686;27;20050;-79
2022/08/03 05:37:07;;;;;;;0.10;0.10;;;;;;;;;;5118314;27;20496;-80
2022/08/03 05:39:34;;;;;;;0.10;0.10;;;;;;;;;;5121075;27;20537;-78
2022/08/03 05:42:00;;;;;;;0.10;0.10;;;;;;;;;;5118991;27;20400;-79
2022/08/03 05:44:26;;;;;;;0.10;0.10;;;;;;;;;;5118628;27;20182;-79
2022/08/03 05:46:52;;;;;;;0.10;0.10;;;;;;;;;;5128301;27;20091;-80
2022/08/03 05:49:18;;;;;;;0.10;0.10;;;;;;;;;;5133111;27;20043;-82
2022/08/03 05:51:45;;;;;;;0.10;0.10;;;;;;;;;;5132392;27;20031;-85
2022/08/03 05:54:11;;;;;;;0.10;0.10;;;;;;;;;;5115575;27;20422;-82
2022/08/03 05:56:39;;;;;;;0.10;0.10;;;;;;;;;;5109407;27;20447;-81
2022/08/03 05:59:05;;;;;;;0.10;0.10;;;;;;;;;;5104607;27;20430;-82
2022/08/03 06:01:32;;;;;;;0.00;0.00;;;;;;;;;;5122337;27;22368;-88
2022/08/03 06:03:58;;;;;;;0.10;0.10;;;;;;;;;;5140860;27;20433;-84
2022/08/03 06:06:24;;;;;;;0.00;0.00;;;;;;;;;;5119762;27;20933;-87
2022/08/03 06:08:50;;;;;;;0.10;0.10;;;;;;;;;;5125002;27;20428;-88
2022/08/03 06:11:16;;;;;;;0.10;0.10;;;;;;;;;;5119058;27;20460;-88
2022/08/03 06:13:43;;;;;;;0.10;0.10;;;;;;;;;;5117060;27;20416;-88
2022/08/03 06:16:09;;;;;;;0.10;0.10;;;;;;;;;;5113454;27;20475;-88
2022/08/03 06:18:35;;;;;;;0.10;0.10;;;;;;;;;;5101408;27;20424;-87
2022/08/03 06:21:02;;;;;;;0.10;0.10;;;;;;;;;;5147944;27;20504;-86
2022/08/03 06:23:28;;;;;;;0.80;0.50;;;;;;;;;;5131866;27;20508;-88
2022/08/03 06:25:54;;;;;;;0.10;0.10;;;;;;;;;;5124544;27;20908;-85
2022/08/03 06:28:20;;;;;;;0.40;0.30;;;;;;;;;;5125585;27;20455;-90
2022/08/03 06:30:46;;;;;;;0.10;0.10;;;;;;;;;;5122975;27;20425;-89
2022/08/03 06:33:12;;;;;;;0.32;0.32;;;;;;;;;;5129642;27;20420;-89
2022/08/03 06:35:38;;;;;;;0.10;0.10;;;;;;;;;;5121528;27;20425;-88
2022/08/03 06:38:04;;;;;;;0.10;0.10;;;;;;;;;;5135444;27;20513;-88
2022/08/03 06:40:31;;;;;;;0.20;0.20;;;;;;;;;;5124076;27;20806;-89
2022/08/03 06:42:58;;;;;;;0.10;0.10;;;;;;;;;;5127478;27;20443;-86
2022/08/03 06:45:24;;;;;;;0.22;0.20;;;;;;;;;;5108793;27;20416;-89
2022/08/03 06:47:59;;;;;;;0.30;0.20;;;;;;;;;;5134589;27;20804;-89
2022/08/03 06:50:25;;;;;;;0.40;0.30;;;;;;;;;;5126401;27;20441;-88
2022/08/03 06:52:51;;;;;;;0.20;0.20;;;;;;;;;;5123329;27;20949;-90
2022/08/03 06:55:17;;;;;;;0.10;0.10;;;;;;;;;;5121477;27;20945;-90
2022/08/03 06:57:43;;;;;;;0.10;0.10;;;;;;;;;;5126323;27;20902;-90
2022/08/03 07:00:10;;;;;;;0.10;0.10;;;;;;;;;;5111469;27;20420;-89
2022/08/03 07:02:37;;;;;;;0.10;0.10;;;;;;;;;;5112269;27;20979;-87
2022/08/03 07:05:03;;;;;;;0.10;0.10;;;;;;;;;;5130603;27;20435;-87
2022/08/03 07:07:29;;;;;;;0.10;0.10;;;;;;;;;;5153086;27;20413;-87
2022/08/03 07:09:55;;;;;;;0.60;0.20;;;;;;;;;;5131800;27;20505;-89
2022/08/03 07:12:21;;;;;;;0.10;0.10;;;;;;;;;;5100555;27;20421;-89
2022/08/03 07:14:47;;;;;;;0.10;0.10;;;;;;;;;;5131386;27;20493;-88
2022/08/03 07:17:13;;;;;;;0.10;0.10;;;;;;;;;;5134593;27;20413;-88
2022/08/03 07:19:39;;;;;;;0.20;0.20;;;;;;;;;;5118955;27;20477;-88
2022/08/03 07:22:05;;;;;;;1.40;1.00;;;;;;;;;;5130728;27;20464;-87
2022/08/03 07:24:31;;;;;;;0.50;0.50;;;;;;;;;;5115845;27;20416;-87
2022/08/03 07:26:57;;;;;;;0.70;0.70;;;;;;;;;;5117123;27;20488;-85
2022/08/03 07:29:23;;;;;;;0.10;0.10;;;;;;;;;;5108044;27;20464;-86
2022/08/03 07:31:50;;;;;;;0.10;0.10;;;;;;;;;;5129212;27;20425;-88
2022/08/03 07:34:16;;;;;;;0.20;0.20;;;;;;;;;;5117408;27;20414;-88
2022/08/03 07:36:42;;;;;;;0.10;0.10;;;;;;;;;;5124566;27;20426;-88
2022/08/03 07:39:08;;;;;;;0.30;0.20;;;;;;;;;;5125237;27;20529;-89
2022/08/03 07:41:34;;;;;;;0.20;0.20;;;;;;;;;;5126527;27;20413;-88
2022/08/03 07:44:00;;;;;;;1.92;0.35;;;;;;;;;;5130731;27;20432;-88
2022/08/03 07:46:26;;;;;;;1.90;0.40;;;;;;;;;;5124048;27;20510;-87
2022/08/03 07:48:52;;;;;;;0.10;0.10;;;;;;;;;;5098084;27;20416;-89
2022/08/03 07:51:18;;;;;;;0.20;0.20;;;;;;;;;;5115042;27;20928;-88
2022/08/03 07:53:44;;;;;;;2.00;0.30;;;;;;;;;;5105626;27;20425;-89
2022/08/03 07:56:10;;;;;;;0.10;0.10;;;;;;;;;;5120040;27;20498;-89
2022/08/03 07:58:36;;;;;;;0.20;0.20;;;;;;;;;;5118044;27;20426;-89
2022/08/03 08:01:02;;;;;;;0.10;0.10;;;;;;;;;;5122857;27;20428;-89
2022/08/03 08:03:28;;;;;;;0.20;0.20;;;;;;;;;;5102704;27;20419;-87
2022/08/03 08:05:55;;;;;;;1.30;0.30;;;;;;;;;;5127385;27;20775;-87
2022/08/03 08:08:21;;;;;;;0.10;0.10;;;;;;;;;;5115883;27;20479;-88
2022/08/03 08:10:47;;;;;;;0.10;0.10;;;;;;;;;;5129746;27;20410;-89
2022/08/03 08:13:13;;;;;;;0.10;0.10;;;;;;;;;;5130024;27;20911;-89
2022/08/03 08:15:41;;;;;;;0.13;0.13;;;;;;;;;;5116083;27;20475;-88
2022/08/03 08:18:07;;;;;;;0.10;0.10;;;;;;;;;;5126943;27;20511;-88
2022/08/03 08:20:34;;;;;;;0.40;0.40;;;;;;;;;;5128832;27;20542;-87
2022/08/03 08:23:01;;;;;;;0.10;0.10;;;;;;;;;;5132138;27;20453;-88
2022/08/03 08:25:27;;;;;;;0.10;0.10;;;;;;;;;;5124473;27;20424;-89
2022/08/03 08:27:53;;;;;;;0.10;0.10;;;;;;;;;;5123545;27;20445;-89
2022/08/03 08:30:20;;;;;;;0.20;0.20;;;;;;;;;;5130059;27;20512;-90
2022/08/03 08:32:47;;;;;;;0.10;0.10;;;;;;;;;;5123258;27;20416;-91
2022/08/03 08:35:14;;;;;;;0.20;0.20;;;;;;;;;;5116600;27;20434;-90
2022/08/03 08:37:40;;;;;;;0.40;0.38;;;;;;;;;;5133720;27;20788;-91
2022/08/03 08:40:07;;;;;;;0.10;0.10;;;;;;;;;;5112728;27;20469;-91
2022/08/03 08:42:33;;;;;;;0.10;0.10;;;;;;;;;;5131229;27;20424;-91
2022/08/03 08:45:00;;;;;;;0.10;0.10;;;;;;;;;;5131400;27;20934;-87
2022/08/03 08:47:30;;;;;;;0.10;0.10;;;;;;;;;;5128737;27;20767;-89
2022/08/03 08:49:57;;;;;;;0.20;0.20;;;;;;;;;;5133453;27;20470;-91
2022/08/03 08:52:27;;;;;;;0.20;0.20;;;;;;;;;;5114666;27;20422;-85
2022/08/03 08:54:58;;;;;;;0.20;0.20;;;;;;;;;;5112931;28;20785;-81
2022/08/03 08:57:27;;;;;;;0.10;0.10;;;;;;;;;;5123612;27;20425;-85
2022/08/03 08:59:55;;;;;;;0.30;0.30;;;;;;;;;;5142467;27;20417;-83
2022/08/03 09:02:22;;;;;;;0.30;0.30;;;;;;;;;;5133785;27;20425;-88
2022/08/03 09:04:48;;;;;;;0.25;0.25;;;;;;;;;;5116157;27;20816;-83
2022/08/03 09:07:14;;;;;;;0.40;0.30;;;;;;;;;;5140814;27;20781;-82
2022/08/03 09:09:41;;;;;;;0.20;0.20;;;;;;;;;;5149654;27;20561;-86
2022/08/03 09:12:08;;;;;;;0.10;0.10;;;;;;;;;;5150004;27;20659;-88
2022/08/03 09:14:34;;;;;;;0.10;0.10;;;;;;;;;;5151067;27;20073;-86
2022/08/03 09:17:01;;;;;;;3.10;1.52;;;;;;;;;;5143091;27;20054;-95
2022/08/03 09:19:28;;;;;;;0.40;0.40;;;;;;;;;;5151100;27;20130;-84
2022/08/03 09:22:13;;;;;;;0.10;0.10;;;;;;;;;;5127575;27;20046;-93
2022/08/03 09:24:54;;;;;;;0.10;0.10;;;;;;;;;;5139963;27;20120;-84
2022/08/03 09:27:20;;;;;;;0.90;0.82;;;;;;;;;;5140023;27;20047;-82
2022/08/03 09:29:48;;;;;;;0.10;0.10;;;;;;;;;;5140765;27;20087;-77
2022/08/03 09:32:14;;;;;;;0.55;0.50;;;;;;;;;;5134384;27;20050;-81
2022/08/03 09:34:42;;;;;;;1.70;1.60;;;;;;;;;;5152165;27;20122;-81
2022/08/03 09:37:15;;;;;;;0.10;0.10;;;;;;;;;;5121232;27;20039;-81
2022/08/03 09:39:41;;;;;;;0.20;0.20;;;;;;;;;;5144099;27;20034;-82
2022/08/03 09:42:16;;;;;;;0.10;0.10;;;;;;;;;;5153291;27;20039;-86
2022/08/03 09:44:46;;;;;;;1.02;0.93;;;;;;;;;;5150757;27;20045;-80
2022/08/03 09:47:13;;;;;;;0.17;0.17;;;;;;;;;;5136149;27;20160;-85
2022/08/03 09:49:40;;;;;;;0.17;0.17;;;;;;;;;;5149434;27;20546;-86
2022/08/03 09:52:14;;;;;;;0.20;0.20;;;;;;;;;;5132711;27;20043;-86
2022/08/03 09:54:41;;;;;;;14.32;0.77;;;;;;;;;;5147436;27;20497;-86
2022/08/03 09:57:07;;;;;;;0.20;0.20;;;;;;;;;;5149740;27;20443;-84
2022/08/03 09:59:33;;;;;;;1.48;0.65;;;;;;;;;;5156371;27;20054;-85
2022/08/03 10:02:00;;;;;;;0.10;0.10;;;;;;;;;;5118536;27;20047;-89
2022/08/03 10:04:27;;;;;;;0.45;0.45;;;;;;;;;;5137473;27;20435;-89
2022/08/03 10:07:08;;;;;;;0.10;0.10;;;;;;;;;;5148114;27;20118;-86
2022/08/03 10:09:34;;;;;;;0.10;0.10;;;;;;;;;;5147452;27;20164;-87
2022/08/03 10:12:13;;;;;;;0.15;0.15;;;;;;;;;;5154389;27;20042;-86
2022/08/03 10:14:40;;;;;;;0.08;0.08;;;;;;;;;;5143187;27;20129;-84
2022/08/03 10:17:07;;;;;;;0.10;0.10;;;;;;;;;;5143320;27;20082;-86
2022/08/03 10:19:33;;;;;;;9.52;0.88;;;;;;;;;;5144336;27;20077;-80
2022/08/03 10:22:08;;;;;;;1.15;0.25;;;;;;;;;;5133737;27;20054;-84
2022/08/03 10:24:35;;;;;;;0.20;0.20;;;;;;;;;;5139161;27;20335;-88
2022/08/03 10:27:06;;;;;;;0.30;0.30;;;;;;;;;;5125701;27;20176;-87
2022/08/03 10:29:42;;;;;;;0.10;0.10;;;;;;;;;;5116787;27;20133;-86
2022/08/03 10:32:18;;;;;;;0.10;0.10;;;;;;;;;;5141345;27;20039;-86
2022/08/03 10:34:44;;;;;;;0.10;0.10;;;;;;;;;;5142242;27;20034;-86
2022/08/03 10:37:12;;;;;;;0.10;0.10;;;;;;;;;;5110578;27;20107;-86
2022/08/03 10:39:52;;;;;;;0.08;0.08;;;;;;;;;;5126257;27;20050;-79
2022/08/03 10:42:19;;;;;;;0.10;0.10;;;;;;;;;;5143199;27;20482;-80
2022/08/03 10:44:46;;;;;;;0.10;0.10;;;;;;;;;;5145870;27;20042;-85
2022/08/03 10:47:12;;;;;;;0.25;0.25;;;;;;;;;;5153947;27;20099;-84
2022/08/03 10:49:38;;;;;;;0.20;0.20;;;;;;;;;;5143891;27;20504;-86
2022/08/03 10:52:05;;;;;;;0.10;0.10;;;;;;;;;;5148478;27;20041;-88
2022/08/03 10:57:33;;;;;;;0.10;0.10;;;;;;;;;;5146698;27;20068;-88
2022/08/03 10:57:42;;;;;;;0.10;0.10;;;;;;;;;;5130380;27;20054;-81
2022/08/03 11:00:08;;;;;;;0.20;0.20;;;;;;;;;;5153548;27;20042;-81
2022/08/03 11:02:53;;;;;;;0.25;0.25;;;;;;;;;;5133583;27;20051;-79
2022/08/03 11:05:27;;;;;;;1.05;1.05;;;;;;;;;;5121343;27;20055;-79
2022/08/03 11:08:13;;;;;;;0.43;0.40;;;;;;;;;;5143038;27;20057;-83
2022/08/03 11:10:39;;;;;;;0.20;0.20;;;;;;;;;;5120615;27;20043;-84
2022/08/03 11:13:06;;;;;;;0.10;0.10;;;;;;;;;;5149939;27;20038;-77
2022/08/03 11:15:34;;;;;;;0.10;0.10;;;;;;;;;;5151978;27;20047;-79
2022/08/03 11:18:11;;;;;;;0.20;0.20;;;;;;;;;;5153092;27;20051;-77
2022/08/03 11:20:53;;;;;;;0.70;0.70;;;;;;;;;;5135751;27;20038;-81
2022/08/03 11:23:40;;;;;;;0.38;0.38;;;;;;;;;;5142363;27;20035;-81
2022/08/03 11:26:12;;;;;;;0.22;0.22;;;;;;;;;;5136892;27;20054;-82
2022/08/03 11:28:38;;;;;;;0.10;0.10;;;;;;;;;;5150038;27;20047;-82
2022/08/03 11:31:26;;;;;;;0.10;0.10;;;;;;;;;;5132451;27;20493;-79
2022/08/03 11:34:08;;;;;;;0.17;0.17;;;;;;;;;;5145094;27;20043;-79
2022/08/03 11:36:53;;;;;;;0.85;0.85;;;;;;;;;;5143604;27;20043;-85
2022/08/03 11:39:19;;;;;;;0.10;0.10;;;;;;;;;;5144388;27;20050;-85
2022/08/03 11:41:45;;;;;;;0.40;0.40;;;;;;;;;;5147244;27;20111;-82
2022/08/03 11:44:31;;;;;;;0.25;0.25;;;;;;;;;;5129735;27;20058;-84
2022/08/03 11:46:58;;;;;;;1.00;0.90;;;;;;;;;;5127427;27;20367;-84
2022/08/03 11:49:24;;;;;;;0.32;0.32;;;;;;;;;;5148099;27;20043;-81
2022/08/03 11:51:53;;;;;;;0.10;0.10;;;;;;;;;;5133912;27;20561;-83
2022/08/03 11:54:19;;;;;;;0.35;0.35;;;;;;;;;;5148569;27;20046;-81
2022/08/03 11:56:46;;;;;;;0.10;0.10;;;;;;;;;;5150847;27;20070;-80
2022/08/03 11:59:12;;;;;;;0.10;0.10;;;;;;;;;;5139351;27;20043;-81
2022/08/03 12:01:39;;;;;;;0.20;0.20;;;;;;;;;;5138595;27;20434;-79
2022/08/03 12:04:05;;;;;;;0.32;0.32;;;;;;;;;;5150431;27;20043;-82
2022/08/03 12:06:53;;;;;;;0.20;0.20;;;;;;;;;;5102124;27;20095;-83
2022/08/03 12:09:19;;;;;;;0.80;0.80;;;;;;;;;;5145894;27;20042;-83
2022/08/03 12:11:52;;;;;;;0.10;0.10;;;;;;;;;;5151274;27;20093;-81
2022/08/03 12:14:18;;;;;;;0.60;0.60;;;;;;;;;;5148080;27;20055;-85
2022/08/03 12:16:48;;;;;;;0.00;0.00;;;;;;;;;;5147263;27;20075;-85
2022/08/03 12:19:14;;;;;;;0.77;0.77;;;;;;;;;;5136427;27;20053;-83
2022/08/03 12:21:47;;;;;;;1.25;0.70;;;;;;;;;;5129638;27;20035;-85
2022/08/03 12:24:13;;;;;;;;;;;;;;;;;;5152136;27;20051;-78
2022/08/03 12:26:47;;;;;;;1.08;0.80;;;;;;;;;;5149555;27;19945;-82
2022/08/03 12:29:24;;;;;;;0.43;0.43;;;;;;;;;;5137517;27;20046;-80
2022/08/03 12:31:50;;;;;;;0.20;0.20;;;;;;;;;;5149804;27;20449;-83
2022/08/03 12:34:16;;;;;;;0.52;0.52;;;;;;;;;;5146200;27;21550;-82
2022/08/03 12:36:53;;;;;;;0.10;0.10;;;;;;;;;;5142845;27;20059;-81
2022/08/03 12:39:23;;;;;;;0.10;0.10;;;;;;;;;;5149998;27;20097;-82
2022/08/03 12:41:52;;;;;;;0.52;0.25;;;;;;;;;;5147443;27;20070;-81
2022/08/03 12:44:18;;;;;;;0.75;0.57;;;;;;;;;;5135786;27;20043;-81
2022/08/03 12:46:44;;;;;;;4.50;2.30;;;;;;;;;;5117670;27;20039;-82
2022/08/03 12:49:13;;;;;;;0.32;0.32;;;;;;;;;;5133826;27;20054;-83
2022/08/03 12:51:42;;;;;;;0.10;0.10;;;;;;;;;;5141200;27;20079;-84
2022/08/03 12:54:19;;;;;;;0.10;0.10;;;;;;;;;;5155986;27;20546;-84
2022/08/03 12:57:00;;;;;;;5.47;1.73;;;;;;;;;;5125885;27;20043;-84
2022/08/03 12:59:27;;;;;;;1.58;1.27;;;;;;;;;;5143467;27;20042;-80
2022/08/03 13:01:53;;;;;;;0.10;0.10;;;;;;;;;;5131425;27;20534;-80
2022/08/03 13:04:26;;;;;;;0.75;0.40;;;;;;;;;;5149561;27;20043;-78
2022/08/03 13:06:59;;;;;;;2.50;0.93;;;;;;;;;;5144698;27;20043;-80
2022/08/03 13:09:25;;;;;;;1.25;0.98;;;;;;;;;;5152943;27;20493;-79
2022/08/03 13:12:08;;;;;;;2.45;1.75;;;;;;;;;;5135964;27;20174;-79
2022/08/03 13:14:34;;;;;;;0.57;0.52;;;;;;;;;;5150820;27;20520;-79
2022/08/03 13:17:00;;;;;;;0.63;0.57;;;;;;;;;;5138073;27;20127;-79
2022/08/03 13:19:26;;;;;;;0.10;0.10;;;;;;;;;;5137770;27;20058;-79
2022/08/03 13:21:52;;;;;;;0.88;0.80;;;;;;;;;;5131822;27;20065;-78
2022/08/03 13:24:18;;;;;;;0.22;0.22;;;;;;;;;;5130485;27;20479;-79
2022/08/03 13:26:45;;;;;;;0.20;0.20;;;;;;;;;;5141169;27;20054;-79
2022/08/03 13:29:11;;;;;;;1.90;0.88;;;;;;;;;;5140529;27;20047;-79
2022/08/03 13:31:37;;;;;;;0.10;0.10;;;;;;;;;;5154005;27;20043;-78
2022/08/03 13:34:03;;;;;;;0.10;0.10;;;;;;;;;;5122717;27;20054;-79
2022/08/03 13:36:29;;;;;;;0.15;0.15;;;;;;;;;;5142089;27;20130;-79
2022/08/03 13:38:55;;;;;;;0.10;0.10;;;;;;;;;;5128184;27;20125;-78
2022/08/03 13:41:21;;;;;;;0.65;0.65;;;;;;;;;;5155022;27;20043;-79
2022/08/03 13:43:47;;;;;;;0.13;0.13;;;;;;;;;;5143511;27;20576;-79
2022/08/03 13:46:13;;;;;;;0.50;0.50;;;;;;;;;;5152395;27;20047;-78
2022/08/03 13:48:39;;;;;;;0.15;0.15;;;;;;;;;;5141681;27;20047;-79
2022/08/03 13:51:05;;;;;;;0.40;0.40;;;;;;;;;;5151716;27;20876;-79
2022/08/03 13:53:32;;;;;;;0.20;0.20;;;;;;;;;;5131560;27;20385;-79
2022/08/03 13:55:58;;;;;;;0.10;0.10;;;;;;;;;;5136785;27;20051;-79
2022/08/03 13:58:24;;;;;;;0.50;0.50;;;;;;;;;;5151381;27;20507;-79
2022/08/03 14:00:50;;;;;;;2.08;0.70;;;;;;;;;;5149123;27;20047;-79
2022/08/03 14:03:16;;;;;;;0.22;0.22;;;;;;;;;;5122333;27;20070;-79
2022/08/03 14:05:42;;;;;;;1.17;1.08;;;;;;;;;;5143630;27;20404;-80
2022/08/03 14:08:09;;;;;;;0.30;0.30;;;;;;;;;;5146735;27;20050;-79
2022/08/03 14:10:36;;;;;;;2.28;0.75;;;;;;;;;;5135353;27;20497;-78
2022/08/03 14:13:03;;;;;;;6.75;1.42;;;;;;;;;;5154658;27;20461;-79
2022/08/03 14:15:29;;;;;;;0.38;0.38;;;;;;;;;;5152782;27;20054;-79
2022/08/03 14:17:56;;;;;;;0.10;0.10;;;;;;;;;;5149731;27;20345;-80
2022/08/03 14:20:22;;;;;;;1.23;1.08;;;;;;;;;;5124551;27;20039;-79
2022/08/03 14:22:48;;;;;;;1.15;0.95;;;;;;;;;;5154042;27;20082;-79
2022/08/03 14:25:14;;;;;;;0.10;0.10;;;;;;;;;;5149079;27;20042;-79
2022/08/03 14:27:40;;;;;;;0.30;0.30;;;;;;;;;;5151562;27;20073;-78
2022/08/03 14:30:06;;;;;;;0.10;0.10;;;;;;;;;;5121073;27;20054;-79
2022/08/03 14:32:32;;;;;;;1.20;1.10;;;;;;;;;;5134746;27;20442;-79
2022/08/03 14:34:58;;;;;;;0.45;0.40;;;;;;;;;;5151714;27;20489;-79
2022/08/03 14:37:24;;;;;;;0.10;0.10;;;;;;;;;;5154222;27;20051;-79
2022/08/03 14:39:50;;;;;;;0.10;0.10;;;;;;;;;;5130224;27;20046;-80
2022/08/03 14:42:16;;;;;;;0.30;0.28;;;;;;;;;;5154262;27;20050;-82
2022/08/03 14:44:43;;;;;;;0.28;0.28;;;;;;;;;;5145763;27;20046;-83
2022/08/03 14:47:09;;;;;;;1.02;0.75;;;;;;;;;;5154012;27;20134;-83
2022/08/03 14:49:35;;;;;;;0.30;0.30;;;;;;;;;;5148268;27;20125;-84
2022/08/03 14:52:01;;;;;;;0.95;0.85;;;;;;;;;;5146537;27;20493;-84
2022/08/03 14:54:29;;;;;;;1.10;0.63;;;;;;;;;;5152643;27;20534;-85